• Join FlightAware (Why Join?)
  • Login
  • US Flag 
10:49PM EST


 

Airport Tracker/Info


-or-


 

Live Flight TrackerFlight Track Log ✈ AWI3680 ✈ 06-Jul-2013 ✈ KPHL - KALB

Flight Track Log - Related Links

Times and Time Zones

All times are in EDT time to prevent confusion due to time zone crossing. See the AWI3680 flight status page for this flight to view local times or setup timezone preferences in your user account.

Time Position Orientation Groundspeed Altitude Reporting Facility
EDT Latitude Longitude Course Direction KTS MPH feet Rate Location/Type
06:36PM 39.8667 -75.2833 37° Northeast 162 186 800  Level Philadelphia TRACON
06:37PM 39.8167 -75.3333 218° Southwest 205 236 2,700 2,150 Climbing Philadelphia TRACON
06:38PM 39.7667 -75.3667 207° Southwest 217 250 5,100 2,150 Climbing Philadelphia TRACON
06:39PM 39.8199 -74.9564 123° Southeast  Level FlightAware Approximate
06:39PM 39.7333 -75.3000 123° Southeast 270 311 7,000  Level Philadelphia TRACON
06:40PM 39.8154 -74.8602 105° East  Level FlightAware Approximate
06:40PM 39.7500 -75.2000 78° East 294 338 8,700  Level Philadelphia TRACON
06:41PM 39.7965 -74.7657 105° East  Level FlightAware Approximate
06:42PM 39.8015 -74.6819 37° Northeast  Level FlightAware Approximate
06:42PM 39.7611 -75.0378 85° East 308 354 11,400  Level New York Center
06:43PM 39.7714 -74.9247 83° East 328 377 11,900 661 Climbing New York Center
06:44PM 39.7867 -74.7906 82° East 358 412 12,700 1,059 Climbing New York Center
06:45PM 39.8342 -74.6744 62° Northeast 364 419 14,000 1,230 Climbing New York Center
06:46PM 39.9206 -74.5900 37° Northeast 353 406 15,200 1,289 Climbing New York Center
06:47PM 40.0172 -74.4978 36° Northeast 381 438 16,600 1,091 Climbing New York Center
06:48PM 40.1075 -74.4103 37° Northeast 396 456 17,400 857 Climbing New York Center
06:49PM 40.1892 -74.3303 37° Northeast 402 463 18,300 958 Climbing New York Center
06:50PM 40.2900 -74.2294 37° Northeast 402 463 19,300 1,091 Climbing New York Center
06:51PM 40.3781 -74.1383 38° Northeast 402 463 20,500 1,077 Climbing New York Center
06:53PM 40.5975 -73.9789 29° Northeast 404 465 22,800 954 Climbing Boston Center
06:54PM 40.6836 -73.9344 21° North 399 459 23,600 600 Climbing Boston Center
06:55PM 40.7931 -73.8628 26° Northeast 399 459 24,000 200 Climbing Boston Center
06:56PM 40.8775 -73.7631 42° Northeast 394 453 24,000 -550 Level Boston Center
06:57PM 40.9742 -73.6936 28° Northeast 394 453 22,900 -1,300 Descending Boston Center
06:58PM 41.0828 -73.6819 North 376 433 21,400 -1,450 Descending Boston Center
06:59PM 41.1892 -73.6647 North 376 433 20,000 -700 Descending Boston Center
07:00PM 41.2936 -73.6475 North 381 438 20,000 -50 Level Boston Center
07:01PM 41.3981 -73.6300 North 376 433 19,900 -1,200 Descending Boston Center
07:02PM 41.5128 -73.6128 North 376 433 17,600 -2,050 Descending Boston Center
07:03PM 41.6150 -73.6008 North 368 423 15,800 -1,450 Descending Boston Center
07:04PM 41.7006 -73.5883 North 356 410 14,700 -1,100 Descending Boston Center
07:05PM 41.8050 -73.5736 North 346 398 13,600 -1,000 Descending Boston Center
07:06PM 41.8925 -73.5583 North 346 398 12,700 -1,000 Descending Boston Center
07:07PM 41.9761 -73.5486 North 326 375 11,800 -887 Descending Boston Center
07:08PM 42.0700 -73.5336 North 308 354 11,000 -375 Descending Boston Center
07:09PM 42.1489 -73.5517 350° North 301 346 11,000 -149 Level Boston Center
07:10PM 42.2258 -73.5897 340° North 290 334 10,700 -1,190 Descending Boston Center
07:11PM 42.2964 -73.6244 340° North 268 308 8,600 -2,213 Descending Boston Center
07:12PM 42.3731 -73.6597 341° North 270 311 6,200 -2,132 Descending Boston Center
07:13PM 42.4353 -73.6947 337° Northwest 238 274 4,300 -1,934 Descending Boston Center
07:14PM 42.4994 -73.7242 341° North 243 280 2,300 -1,967 Descending Boston Center